sensor_id;sensor_type;location;lat;lon;timestamp;temperature;humidity
71672;DHT22;62112;45.638;11.714;2022-12-10T00:01:26;20.20;87.00
71672;DHT22;62112;45.638;11.714;2022-12-10T00:03:52;20.20;86.90
71672;DHT22;62112;45.638;11.714;2022-12-10T00:06:21;20.10;86.90
71672;DHT22;62112;45.638;11.714;2022-12-10T00:08:48;20.10;86.80
71672;DHT22;62112;45.638;11.714;2022-12-10T00:11:15;20.20;87.00
71672;DHT22;62112;45.638;11.714;2022-12-10T00:13:44;20.10;86.90
71672;DHT22;62112;45.638;11.714;2022-12-10T00:16:12;20.10;87.00
71672;DHT22;62112;45.638;11.714;2022-12-10T00:18:39;20.10;86.90
71672;DHT22;62112;45.638;11.714;2022-12-10T00:21:10;20.10;87.10
71672;DHT22;62112;45.638;11.714;2022-12-10T00:23:37;20.00;87.00
71672;DHT22;62112;45.638;11.714;2022-12-10T00:26:04;20.10;86.90
71672;DHT22;62112;45.638;11.714;2022-12-10T00:28:31;20.00;87.20
71672;DHT22;62112;45.638;11.714;2022-12-10T00:31:11;20.00;87.10
71672;DHT22;62112;45.638;11.714;2022-12-10T00:33:38;20.00;87.00
71672;DHT22;62112;45.638;11.714;2022-12-10T00:36:09;20.00;87.20
71672;DHT22;62112;45.638;11.714;2022-12-10T00:38:36;19.90;87.10
71672;DHT22;62112;45.638;11.714;2022-12-10T00:41:03;19.90;87.30
71672;DHT22;62112;45.638;11.714;2022-12-10T00:43:29;19.90;87.00
71672;DHT22;62112;45.638;11.714;2022-12-10T00:45:55;19.90;87.20
71672;DHT22;62112;45.638;11.714;2022-12-10T00:48:21;19.90;87.20
71672;DHT22;62112;45.638;11.714;2022-12-10T00:51:12;19.90;87.20
71672;DHT22;62112;45.638;11.714;2022-12-10T00:53:39;19.80;87.30
71672;DHT22;62112;45.638;11.714;2022-12-10T00:56:06;19.90;87.20
71672;DHT22;62112;45.638;11.714;2022-12-10T00:58:33;19.80;87.20
71672;DHT22;62112;45.638;11.714;2022-12-10T01:01:15;19.90;87.20
71672;DHT22;62112;45.638;11.714;2022-12-10T01:03:43;19.90;87.40
71672;DHT22;62112;45.638;11.714;2022-12-10T01:06:15;19.90;87.40
71672;DHT22;62112;45.638;11.714;2022-12-10T01:08:42;19.80;87.40
71672;DHT22;62112;45.638;11.714;2022-12-10T01:11:10;19.80;87.30
71672;DHT22;62112;45.638;11.714;2022-12-10T01:13:36;19.80;87.30
71672;DHT22;62112;45.638;11.714;2022-12-10T01:16:03;19.80;87.30
71672;DHT22;62112;45.638;11.714;2022-12-10T01:18:30;19.70;87.30
71672;DHT22;62112;45.638;11.714;2022-12-10T01:21:03;19.80;87.40
71672;DHT22;62112;45.638;11.714;2022-12-10T01:23:32;19.80;87.40
71672;DHT22;62112;45.638;11.714;2022-12-10T01:26:03;19.80;87.30
71672;DHT22;62112;45.638;11.714;2022-12-10T01:28:31;19.80;87.40
71672;DHT22;62112;45.638;11.714;2022-12-10T01:31:08;19.70;87.20
71672;DHT22;62112;45.638;11.714;2022-12-10T01:33:35;19.70;87.40
71672;DHT22;62112;45.638;11.714;2022-12-10T01:36:07;19.70;87.40
71672;DHT22;62112;45.638;11.714;2022-12-10T01:38:33;19.70;87.50
71672;DHT22;62112;45.638;11.714;2022-12-10T01:41:00;19.60;87.60
71672;DHT22;62112;45.638;11.714;2022-12-10T01:43:27;19.70;87.40
71672;DHT22;62112;45.638;11.714;2022-12-10T01:45:53;19.70;87.50
71672;DHT22;62112;45.638;11.714;2022-12-10T01:48:19;19.60;87.60
71672;DHT22;62112;45.638;11.714;2022-12-10T01:50:45;19.70;87.50
71672;DHT22;62112;45.638;11.714;2022-12-10T01:53:12;19.60;87.50
71672;DHT22;62112;45.638;11.714;2022-12-10T01:55:48;19.60;87.50
71672;DHT22;62112;45.638;11.714;2022-12-10T01:58:16;19.60;87.50
71672;DHT22;62112;45.638;11.714;2022-12-10T02:01:09;19.60;87.60
71672;DHT22;62112;45.638;11.714;2022-12-10T02:03:52;19.60;87.50
71672;DHT22;62112;45.638;11.714;2022-12-10T02:06:41;19.60;87.60
71672;DHT22;62112;45.638;11.714;2022-12-10T02:12:23;19.60;87.70
71672;DHT22;62112;45.638;11.714;2022-12-10T02:15:02;19.50;87.60
71672;DHT22;62112;45.638;11.714;2022-12-10T02:17:37;19.50;87.80
71672;DHT22;62112;45.638;11.714;2022-12-10T02:20:20;19.50;87.60
71672;DHT22;62112;45.638;11.714;2022-12-10T02:25:52;19.50;87.60
71672;DHT22;62112;45.638;11.714;2022-12-10T02:31:19;19.50;87.80
71672;DHT22;62112;45.638;11.714;2022-12-10T02:33:51;19.50;87.60
71672;DHT22;62112;45.638;11.714;2022-12-10T02:36:20;19.50;87.70
71672;DHT22;62112;45.638;11.714;2022-12-10T02:38:47;19.50;87.80
71672;DHT22;62112;45.638;11.714;2022-12-10T02:41:22;19.40;87.60
71672;DHT22;62112;45.638;11.714;2022-12-10T02:43:52;19.50;87.60
71672;DHT22;62112;45.638;11.714;2022-12-10T02:46:19;19.40;88.00
71672;DHT22;62112;45.638;11.714;2022-12-10T02:48:46;19.50;87.70
71672;DHT22;62112;45.638;11.714;2022-12-10T02:51:13;19.40;87.60
71672;DHT22;62112;45.638;11.714;2022-12-10T02:53:45;19.40;87.80
71672;DHT22;62112;45.638;11.714;2022-12-10T02:56:19;19.40;87.80
71672;DHT22;62112;45.638;11.714;2022-12-10T03:01:58;19.50;87.80
71672;DHT22;62112;45.638;11.714;2022-12-10T03:07:08;19.40;87.80
71672;DHT22;62112;45.638;11.714;2022-12-10T03:09:40;19.40;87.80
71672;DHT22;62112;45.638;11.714;2022-12-10T03:12:21;19.40;87.80
71672;DHT22;62112;45.638;11.714;2022-12-10T03:14:48;19.40;87.90
71672;DHT22;62112;45.638;11.714;2022-12-10T03:17:14;19.40;87.70
71672;DHT22;62112;45.638;11.714;2022-12-10T03:19:43;19.30;87.80
71672;DHT22;62112;45.638;11.714;2022-12-10T03:22:12;19.40;87.70
71672;DHT22;62112;45.638;11.714;2022-12-10T03:24:40;19.30;87.90
71672;DHT22;62112;45.638;11.714;2022-12-10T03:27:09;19.40;87.90
71672;DHT22;62112;45.638;11.714;2022-12-10T03:29:49;19.30;87.80
71672;DHT22;62112;45.638;11.714;2022-12-10T03:32:17;19.40;87.80
71672;DHT22;62112;45.638;11.714;2022-12-10T03:34:44;19.30;87.80
71672;DHT22;62112;45.638;11.714;2022-12-10T03:37:12;19.40;87.70
71672;DHT22;62112;45.638;11.714;2022-12-10T03:39:39;19.30;87.80
71672;DHT22;62112;45.638;11.714;2022-12-10T03:42:06;19.40;87.90
71672;DHT22;62112;45.638;11.714;2022-12-10T03:44:34;19.30;87.80
71672;DHT22;62112;45.638;11.714;2022-12-10T03:47:01;19.40;87.90
71672;DHT22;62112;45.638;11.714;2022-12-10T03:49:27;19.30;87.80
71672;DHT22;62112;45.638;11.714;2022-12-10T03:51:53;19.30;88.00
71672;DHT22;62112;45.638;11.714;2022-12-10T03:54:20;19.30;87.90
71672;DHT22;62112;45.638;11.714;2022-12-10T03:56:46;19.30;87.90
71672;DHT22;62112;45.638;11.714;2022-12-10T03:59:11;19.30;87.80
71672;DHT22;62112;45.638;11.714;2022-12-10T04:01:38;19.30;88.00
71672;DHT22;62112;45.638;11.714;2022-12-10T04:04:04;19.30;88.00
71672;DHT22;62112;45.638;11.714;2022-12-10T04:06:30;19.30;87.90
71672;DHT22;62112;45.638;11.714;2022-12-10T04:08:56;19.30;88.00
71672;DHT22;62112;45.638;11.714;2022-12-10T04:11:22;19.30;87.80
71672;DHT22;62112;45.638;11.714;2022-12-10T04:13:48;19.30;87.90
71672;DHT22;62112;45.638;11.714;2022-12-10T04:16:33;19.30;87.90
71672;DHT22;62112;45.638;11.714;2022-12-10T04:19:02;19.20;88.00
71672;DHT22;62112;45.638;11.714;2022-12-10T04:21:30;19.30;87.90
71672;DHT22;62112;45.638;11.714;2022-12-10T04:24:17;19.30;88.10
71672;DHT22;62112;45.638;11.714;2022-12-10T04:27:06;19.30;88.00
71672;DHT22;62112;45.638;11.714;2022-12-10T04:29:34;19.30;87.80
71672;DHT22;62112;45.638;11.714;2022-12-10T04:32:02;19.30;88.00
71672;DHT22;62112;45.638;11.714;2022-12-10T04:34:30;19.20;88.00
71672;DHT22;62112;45.638;11.714;2022-12-10T04:36:57;19.20;87.90
71672;DHT22;62112;45.638;11.714;2022-12-10T04:39:24;19.30;88.00
71672;DHT22;62112;45.638;11.714;2022-12-10T04:41:50;19.20;87.90
71672;DHT22;62112;45.638;11.714;2022-12-10T04:44:16;19.20;88.00
71672;DHT22;62112;45.638;11.714;2022-12-10T04:46:43;19.30;87.90
71672;DHT22;62112;45.638;11.714;2022-12-10T04:49:10;19.20;88.10
71672;DHT22;62112;45.638;11.714;2022-12-10T04:51:36;19.20;87.80
71672;DHT22;62112;45.638;11.714;2022-12-10T04:54:03;19.20;88.10
71672;DHT22;62112;45.638;11.714;2022-12-10T04:56:30;19.30;88.00
71672;DHT22;62112;45.638;11.714;2022-12-10T04:58:59;19.10;88.00
71672;DHT22;62112;45.638;11.714;2022-12-10T05:01:26;19.10;88.00
71672;DHT22;62112;45.638;11.714;2022-12-10T05:03:52;19.20;88.00
71672;DHT22;62112;45.638;11.714;2022-12-10T05:06:19;19.30;88.10
71672;DHT22;62112;45.638;11.714;2022-12-10T05:08:46;19.20;88.00
71672;DHT22;62112;45.638;11.714;2022-12-10T05:11:15;19.20;88.00
71672;DHT22;62112;45.638;11.714;2022-12-10T05:13:42;19.20;88.10
71672;DHT22;62112;45.638;11.714;2022-12-10T05:16:11;19.20;87.90
71672;DHT22;62112;45.638;11.714;2022-12-10T05:18:37;19.20;88.20
71672;DHT22;62112;45.638;11.714;2022-12-10T05:21:10;19.20;88.00
71672;DHT22;62112;45.638;11.714;2022-12-10T05:23:38;19.20;88.00
71672;DHT22;62112;45.638;11.714;2022-12-10T05:26:07;19.20;88.10
71672;DHT22;62112;45.638;11.714;2022-12-10T05:28:42;19.10;88.10
71672;DHT22;62112;45.638;11.714;2022-12-10T05:31:16;19.20;88.20
71672;DHT22;62112;45.638;11.714;2022-12-10T05:33:42;19.10;88.00
71672;DHT22;62112;45.638;11.714;2022-12-10T05:36:11;19.20;88.00
71672;DHT22;62112;45.638;11.714;2022-12-10T05:38:37;19.10;88.00
71672;DHT22;62112;45.638;11.714;2022-12-10T05:41:04;19.10;88.00
71672;DHT22;62112;45.638;11.714;2022-12-10T05:43:31;19.10;88.10
71672;DHT22;62112;45.638;11.714;2022-12-10T05:46:06;19.10;87.90
71672;DHT22;62112;45.638;11.714;2022-12-10T05:48:33;19.10;88.10
71672;DHT22;62112;45.638;11.714;2022-12-10T05:51:07;19.10;88.10
71672;DHT22;62112;45.638;11.714;2022-12-10T05:53:34;19.10;88.00
71672;DHT22;62112;45.638;11.714;2022-12-10T05:56:08;19.10;88.10
71672;DHT22;62112;45.638;11.714;2022-12-10T05:58:34;19.20;88.10
71672;DHT22;62112;45.638;11.714;2022-12-10T06:01:05;19.10;88.00
71672;DHT22;62112;45.638;11.714;2022-12-10T06:03:31;19.10;88.00
71672;DHT22;62112;45.638;11.714;2022-12-10T06:05:56;19.10;88.00
71672;DHT22;62112;45.638;11.714;2022-12-10T06:08:22;19.10;88.20
71672;DHT22;62112;45.638;11.714;2022-12-10T06:10:48;19.10;88.10
71672;DHT22;62112;45.638;11.714;2022-12-10T06:13:14;19.10;88.10
71672;DHT22;62112;45.638;11.714;2022-12-10T06:15:43;19.20;88.00
71672;DHT22;62112;45.638;11.714;2022-12-10T06:18:11;19.10;88.10
71672;DHT22;62112;45.638;11.714;2022-12-10T06:20:38;19.10;88.00
71672;DHT22;62112;45.638;11.714;2022-12-10T06:23:04;19.10;88.20
71672;DHT22;62112;45.638;11.714;2022-12-10T06:25:30;19.10;88.20
71672;DHT22;62112;45.638;11.714;2022-12-10T06:27:56;19.10;88.20
71672;DHT22;62112;45.638;11.714;2022-12-10T06:30:22;19.10;88.10
71672;DHT22;62112;45.638;11.714;2022-12-10T06:32:49;19.10;88.10
71672;DHT22;62112;45.638;11.714;2022-12-10T06:35:18;19.10;88.00
71672;DHT22;62112;45.638;11.714;2022-12-10T06:37:45;19.10;88.00
71672;DHT22;62112;45.638;11.714;2022-12-10T06:40:12;19.10;88.10
71672;DHT22;62112;45.638;11.714;2022-12-10T06:42:39;19.00;88.00
71672;DHT22;62112;45.638;11.714;2022-12-10T06:45:05;19.10;88.20
71672;DHT22;62112;45.638;11.714;2022-12-10T06:47:32;19.00;88.00
71672;DHT22;62112;45.638;11.714;2022-12-10T06:50:01;19.10;88.10
71672;DHT22;62112;45.638;11.714;2022-12-10T06:52:30;19.10;88.00
71672;DHT22;62112;45.638;11.714;2022-12-10T06:54:58;19.00;88.10
71672;DHT22;62112;45.638;11.714;2022-12-10T06:57:25;19.10;88.20
71672;DHT22;62112;45.638;11.714;2022-12-10T06:59:53;19.00;88.10
71672;DHT22;62112;45.638;11.714;2022-12-10T07:02:18;19.00;88.10
71672;DHT22;62112;45.638;11.714;2022-12-10T07:04:44;19.10;88.00
71672;DHT22;62112;45.638;11.714;2022-12-10T07:07:13;19.10;88.00
71672;DHT22;62112;45.638;11.714;2022-12-10T07:09:40;19.00;88.20
71672;DHT22;62112;45.638;11.714;2022-12-10T07:12:06;19.00;88.10
71672;DHT22;62112;45.638;11.714;2022-12-10T07:14:32;19.00;88.10
71672;DHT22;62112;45.638;11.714;2022-12-10T07:16:58;19.00;88.10
71672;DHT22;62112;45.638;11.714;2022-12-10T07:19:24;19.00;88.10
71672;DHT22;62112;45.638;11.714;2022-12-10T07:21:50;19.00;88.10
71672;DHT22;62112;45.638;11.714;2022-12-10T07:24:18;19.00;88.10
71672;DHT22;62112;45.638;11.714;2022-12-10T07:26:45;19.00;88.20
71672;DHT22;62112;45.638;11.714;2022-12-10T07:29:20;19.00;88.00
71672;DHT22;62112;45.638;11.714;2022-12-10T07:31:47;19.00;88.20
71672;DHT22;62112;45.638;11.714;2022-12-10T07:34:14;19.00;88.10
71672;DHT22;62112;45.638;11.714;2022-12-10T07:36:41;19.00;88.20
71672;DHT22;62112;45.638;11.714;2022-12-10T07:39:08;19.00;88.00
71672;DHT22;62112;45.638;11.714;2022-12-10T07:41:34;19.00;88.10
71672;DHT22;62112;45.638;11.714;2022-12-10T07:44:02;19.00;88.20
71672;DHT22;62112;45.638;11.714;2022-12-10T07:46:31;19.00;88.10
71672;DHT22;62112;45.638;11.714;2022-12-10T07:48:59;19.00;88.10
71672;DHT22;62112;45.638;11.714;2022-12-10T07:51:26;19.00;88.10
71672;DHT22;62112;45.638;11.714;2022-12-10T07:53:52;19.00;88.30
71672;DHT22;62112;45.638;11.714;2022-12-10T07:56:19;19.00;88.10
71672;DHT22;62112;45.638;11.714;2022-12-10T07:58:45;19.00;88.30
71672;DHT22;62112;45.638;11.714;2022-12-10T08:01:23;19.00;88.30
71672;DHT22;62112;45.638;11.714;2022-12-10T08:03:50;19.00;88.00
71672;DHT22;62112;45.638;11.714;2022-12-10T08:06:19;19.00;88.20
71672;DHT22;62112;45.638;11.714;2022-12-10T08:08:45;19.00;88.20
71672;DHT22;62112;45.638;11.714;2022-12-10T08:11:12;19.00;88.20
71672;DHT22;62112;45.638;11.714;2022-12-10T08:13:39;19.00;88.30
71672;DHT22;62112;45.638;11.714;2022-12-10T08:16:11;19.00;88.30
71672;DHT22;62112;45.638;11.714;2022-12-10T08:18:37;19.00;88.40
71672;DHT22;62112;45.638;11.714;2022-12-10T08:21:06;19.00;88.30
71672;DHT22;62112;45.638;11.714;2022-12-10T08:23:32;19.00;88.40
71672;DHT22;62112;45.638;11.714;2022-12-10T08:25:58;19.00;88.30
71672;DHT22;62112;45.638;11.714;2022-12-10T08:28:24;19.00;88.40
71672;DHT22;62112;45.638;11.714;2022-12-10T08:30:50;19.00;88.30
71672;DHT22;62112;45.638;11.714;2022-12-10T08:33:16;19.00;88.30
71672;DHT22;62112;45.638;11.714;2022-12-10T08:35:41;19.00;88.30
71672;DHT22;62112;45.638;11.714;2022-12-10T08:38:07;19.00;88.30
71672;DHT22;62112;45.638;11.714;2022-12-10T08:40:33;19.00;88.20
71672;DHT22;62112;45.638;11.714;2022-12-10T08:42:59;18.90;88.30
71672;DHT22;62112;45.638;11.714;2022-12-10T08:45:25;18.90;88.40
71672;DHT22;62112;45.638;11.714;2022-12-10T08:47:51;18.90;88.60
71672;DHT22;62112;45.638;11.714;2022-12-10T08:50:17;18.90;88.90
71672;DHT22;62112;45.638;11.714;2022-12-10T08:52:43;18.90;89.00
71672;DHT22;62112;45.638;11.714;2022-12-10T08:55:09;19.00;89.00
71672;DHT22;62112;45.638;11.714;2022-12-10T08:57:35;18.90;89.00
71672;DHT22;62112;45.638;11.714;2022-12-10T09:00:00;19.00;89.00
71672;DHT22;62112;45.638;11.714;2022-12-10T09:02:26;18.90;88.80
71672;DHT22;62112;45.638;11.714;2022-12-10T09:04:52;18.90;88.90
71672;DHT22;62112;45.638;11.714;2022-12-10T09:07:18;18.90;88.90
71672;DHT22;62112;45.638;11.714;2022-12-10T09:09:44;18.90;88.90
71672;DHT22;62112;45.638;11.714;2022-12-10T09:12:10;18.90;88.80
71672;DHT22;62112;45.638;11.714;2022-12-10T09:14:35;19.00;88.70
71672;DHT22;62112;45.638;11.714;2022-12-10T09:17:04;18.90;88.60
71672;DHT22;62112;45.638;11.714;2022-12-10T09:19:30;18.90;88.80
71672;DHT22;62112;45.638;11.714;2022-12-10T09:21:56;19.00;88.70
71672;DHT22;62112;45.638;11.714;2022-12-10T09:24:22;18.90;88.60
71672;DHT22;62112;45.638;11.714;2022-12-10T09:26:47;19.00;88.60
71672;DHT22;62112;45.638;11.714;2022-12-10T09:29:13;18.90;88.70
71672;DHT22;62112;45.638;11.714;2022-12-10T09:31:39;19.00;88.90
71672;DHT22;62112;45.638;11.714;2022-12-10T09:34:05;18.90;88.70
71672;DHT22;62112;45.638;11.714;2022-12-10T09:36:31;18.90;88.90
71672;DHT22;62112;45.638;11.714;2022-12-10T09:38:57;19.00;88.80
71672;DHT22;62112;45.638;11.714;2022-12-10T09:47:02;19.00;88.90
71672;DHT22;62112;45.638;11.714;2022-12-10T09:52:23;18.90;88.90
71672;DHT22;62112;45.638;11.714;2022-12-10T09:54:58;19.00;88.70
71672;DHT22;62112;45.638;11.714;2022-12-10T09:57:31;18.90;89.00
71672;DHT22;62112;45.638;11.714;2022-12-10T10:00:05;19.00;89.00
71672;DHT22;62112;45.638;11.714;2022-12-10T10:02:33;19.00;88.90
71672;DHT22;62112;45.638;11.714;2022-12-10T10:05:19;19.00;88.80
71672;DHT22;62112;45.638;11.714;2022-12-10T10:07:49;19.00;88.90
71672;DHT22;62112;45.638;11.714;2022-12-10T10:12:57;19.00;88.70
71672;DHT22;62112;45.638;11.714;2022-12-10T10:15:32;19.00;88.70
71672;DHT22;62112;45.638;11.714;2022-12-10T10:18:13;19.00;88.70
71672;DHT22;62112;45.638;11.714;2022-12-10T10:20:40;19.00;88.90
71672;DHT22;62112;45.638;11.714;2022-12-10T10:23:08;19.00;88.80
71672;DHT22;62112;45.638;11.714;2022-12-10T10:25:34;19.00;88.80
71672;DHT22;62112;45.638;11.714;2022-12-10T10:28:01;19.00;88.80
71672;DHT22;62112;45.638;11.714;2022-12-10T10:30:27;19.10;89.00
71672;DHT22;62112;45.638;11.714;2022-12-10T10:32:56;19.00;88.80
71672;DHT22;62112;45.638;11.714;2022-12-10T10:35:56;19.00;88.80
71672;DHT22;62112;45.638;11.714;2022-12-10T10:38:26;19.00;88.90
71672;DHT22;62112;45.638;11.714;2022-12-10T10:40:56;19.00;88.90
71672;DHT22;62112;45.638;11.714;2022-12-10T10:43:26;19.10;88.70
71672;DHT22;62112;45.638;11.714;2022-12-10T10:46:03;19.00;88.80
71672;DHT22;62112;45.638;11.714;2022-12-10T10:48:31;19.10;88.80
71672;DHT22;62112;45.638;11.714;2022-12-10T10:53:51;19.10;88.80
71672;DHT22;62112;45.638;11.714;2022-12-10T10:59:05;19.00;88.80
71672;DHT22;62112;45.638;11.714;2022-12-10T11:01:52;19.10;88.70
71672;DHT22;62112;45.638;11.714;2022-12-10T11:04:37;19.10;88.80
71672;DHT22;62112;45.638;11.714;2022-12-10T11:07:05;19.20;88.70
71672;DHT22;62112;45.638;11.714;2022-12-10T11:09:37;19.10;88.80
71672;DHT22;62112;45.638;11.714;2022-12-10T11:12:06;19.10;88.70
71672;DHT22;62112;45.638;11.714;2022-12-10T11:14:46;19.10;88.70
71672;DHT22;62112;45.638;11.714;2022-12-10T11:20:23;19.20;88.60
71672;DHT22;62112;45.638;11.714;2022-12-10T11:22:58;19.20;88.60
71672;DHT22;62112;45.638;11.714;2022-12-10T11:25:50;19.30;88.40
71672;DHT22;62112;45.638;11.714;2022-12-10T11:31:25;19.30;88.50
71672;DHT22;62112;45.638;11.714;2022-12-10T11:42:44;19.20;88.30
71672;DHT22;62112;45.638;11.714;2022-12-10T11:50:41;19.30;88.30
71672;DHT22;62112;45.638;11.714;2022-12-10T11:53:37;19.30;88.10
71672;DHT22;62112;45.638;11.714;2022-12-10T11:56:26;19.30;88.40
71672;DHT22;62112;45.638;11.714;2022-12-10T12:01:30;19.20;88.30
71672;DHT22;62112;45.638;11.714;2022-12-10T12:04:20;19.30;88.30
71672;DHT22;62112;45.638;11.714;2022-12-10T12:09:47;19.30;88.50
71672;DHT22;62112;45.638;11.714;2022-12-10T12:12:43;19.20;88.30
71672;DHT22;62112;45.638;11.714;2022-12-10T12:15:44;19.20;88.40
71672;DHT22;62112;45.638;11.714;2022-12-10T12:18:36;19.20;88.20
71672;DHT22;62112;45.638;11.714;2022-12-10T12:21:15;19.20;88.40
71672;DHT22;62112;45.638;11.714;2022-12-10T12:23:57;19.20;88.30
71672;DHT22;62112;45.638;11.714;2022-12-10T12:31:38;19.20;88.40
71672;DHT22;62112;45.638;11.714;2022-12-10T12:34:34;19.20;88.30
71672;DHT22;62112;45.638;11.714;2022-12-10T12:37:07;19.20;88.20
71672;DHT22;62112;45.638;11.714;2022-12-10T12:42:12;19.30;88.30
71672;DHT22;62112;45.638;11.714;2022-12-10T12:47:53;19.20;88.40
71672;DHT22;62112;45.638;11.714;2022-12-10T12:53:05;19.20;88.20
71672;DHT22;62112;45.638;11.714;2022-12-10T12:58:42;19.30;88.30
71672;DHT22;62112;45.638;11.714;2022-12-10T13:01:18;19.20;88.20
71672;DHT22;62112;45.638;11.714;2022-12-10T13:03:44;19.30;88.20
71672;DHT22;62112;45.638;11.714;2022-12-10T13:06:26;19.30;88.20
71672;DHT22;62112;45.638;11.714;2022-12-10T13:11:30;19.30;88.10
71672;DHT22;62112;45.638;11.714;2022-12-10T13:21:58;19.30;88.30
71672;DHT22;62112;45.638;11.714;2022-12-10T13:24:44;19.30;88.10
71672;DHT22;62112;45.638;11.714;2022-12-10T13:29:56;19.20;88.20
71672;DHT22;62112;45.638;11.714;2022-12-10T13:42:45;19.20;88.40
71672;DHT22;62112;45.638;11.714;2022-12-10T13:45:32;19.30;88.40
71672;DHT22;62112;45.638;11.714;2022-12-10T13:48:22;19.20;88.50
71672;DHT22;62112;45.638;11.714;2022-12-10T13:50:55;19.30;88.20
71672;DHT22;62112;45.638;11.714;2022-12-10T13:53:57;19.20;88.40
71672;DHT22;62112;45.638;11.714;2022-12-10T13:56:28;19.20;88.50
71672;DHT22;62112;45.638;11.714;2022-12-10T13:59:16;19.20;88.40
71672;DHT22;62112;45.638;11.714;2022-12-10T14:07:24;19.20;88.50
71672;DHT22;62112;45.638;11.714;2022-12-10T14:09:57;19.20;88.40
71672;DHT22;62112;45.638;11.714;2022-12-10T14:12:39;19.10;88.50
71672;DHT22;62112;45.638;11.714;2022-12-10T14:15:26;19.20;88.50
71672;DHT22;62112;45.638;11.714;2022-12-10T14:18:04;19.20;88.60
71672;DHT22;62112;45.638;11.714;2022-12-10T14:20:34;19.20;88.50
71672;DHT22;62112;45.638;11.714;2022-12-10T14:23:05;19.10;88.60
71672;DHT22;62112;45.638;11.714;2022-12-10T14:26:18;19.20;88.50
71672;DHT22;62112;45.638;11.714;2022-12-10T14:28:48;19.20;88.60
71672;DHT22;62112;45.638;11.714;2022-12-10T14:31:29;19.20;88.50
71672;DHT22;62112;45.638;11.714;2022-12-10T14:34:03;19.20;88.70
71672;DHT22;62112;45.638;11.714;2022-12-10T14:36:47;19.10;88.60
71672;DHT22;62112;45.638;11.714;2022-12-10T14:39:26;19.20;88.50
71672;DHT22;62112;45.638;11.714;2022-12-10T14:42:09;19.20;88.50
71672;DHT22;62112;45.638;11.714;2022-12-10T14:44:57;19.20;88.60
71672;DHT22;62112;45.638;11.714;2022-12-10T14:47:37;19.20;88.60
71672;DHT22;62112;45.638;11.714;2022-12-10T14:50:14;19.20;88.60
71672;DHT22;62112;45.638;11.714;2022-12-10T14:52:50;19.20;88.60
71672;DHT22;62112;45.638;11.714;2022-12-10T14:55:21;19.10;88.70
71672;DHT22;62112;45.638;11.714;2022-12-10T14:57:58;19.10;88.60
71672;DHT22;62112;45.638;11.714;2022-12-10T15:00:29;19.20;88.60
71672;DHT22;62112;45.638;11.714;2022-12-10T15:03:06;19.10;88.60
71672;DHT22;62112;45.638;11.714;2022-12-10T15:05:34;19.20;88.70
71672;DHT22;62112;45.638;11.714;2022-12-10T15:08:16;19.20;88.50
71672;DHT22;62112;45.638;11.714;2022-12-10T15:10:45;19.30;88.70
71672;DHT22;62112;45.638;11.714;2022-12-10T15:15:48;19.20;88.70
71672;DHT22;62112;45.638;11.714;2022-12-10T15:18:41;19.10;88.60
71672;DHT22;62112;45.638;11.714;2022-12-10T15:21:20;19.20;88.70
71672;DHT22;62112;45.638;11.714;2022-12-10T15:24:09;19.20;88.70
71672;DHT22;62112;45.638;11.714;2022-12-10T15:26:50;19.20;88.90
71672;DHT22;62112;45.638;11.714;2022-12-10T15:29:32;19.20;88.70
71672;DHT22;62112;45.638;11.714;2022-12-10T15:35:39;19.20;88.80
71672;DHT22;62112;45.638;11.714;2022-12-10T15:38:48;19.20;88.70
71672;DHT22;62112;45.638;11.714;2022-12-10T15:41:53;19.10;88.70
71672;DHT22;62112;45.638;11.714;2022-12-10T15:44:45;19.20;88.80
71672;DHT22;62112;45.638;11.714;2022-12-10T15:47:25;19.20;88.80
71672;DHT22;62112;45.638;11.714;2022-12-10T15:50:02;19.20;88.80
71672;DHT22;62112;45.638;11.714;2022-12-10T15:52:32;19.20;88.80
71672;DHT22;62112;45.638;11.714;2022-12-10T15:55:04;19.20;89.00
71672;DHT22;62112;45.638;11.714;2022-12-10T15:57:35;19.20;89.00
71672;DHT22;62112;45.638;11.714;2022-12-10T16:00:31;19.20;89.00
71672;DHT22;62112;45.638;11.714;2022-12-10T16:03:17;19.20;89.20
71672;DHT22;62112;45.638;11.714;2022-12-10T16:05:55;19.20;89.20
71672;DHT22;62112;45.638;11.714;2022-12-10T16:08:36;19.20;89.10
71672;DHT22;62112;45.638;11.714;2022-12-10T16:11:24;19.20;89.10
71672;DHT22;62112;45.638;11.714;2022-12-10T16:14:15;19.10;89.20
71672;DHT22;62112;45.638;11.714;2022-12-10T16:17:27;19.20;89.30
71672;DHT22;62112;45.638;11.714;2022-12-10T16:20:28;19.20;89.10
71672;DHT22;62112;45.638;11.714;2022-12-10T16:23:10;19.20;89.20
71672;DHT22;62112;45.638;11.714;2022-12-10T16:25:52;19.20;89.20
71672;DHT22;62112;45.638;11.714;2022-12-10T16:28:24;19.20;89.10
71672;DHT22;62112;45.638;11.714;2022-12-10T16:30:56;19.20;89.20
71672;DHT22;62112;45.638;11.714;2022-12-10T16:33:33;19.10;89.20
71672;DHT22;62112;45.638;11.714;2022-12-10T16:35:58;19.20;89.20
71672;DHT22;62112;45.638;11.714;2022-12-10T16:38:28;19.10;89.10
71672;DHT22;62112;45.638;11.714;2022-12-10T16:40:55;19.20;89.10
71672;DHT22;62112;45.638;11.714;2022-12-10T16:43:25;19.20;89.10
71672;DHT22;62112;45.638;11.714;2022-12-10T16:46:05;19.20;89.20
71672;DHT22;62112;45.638;11.714;2022-12-10T16:48:38;19.20;89.20
71672;DHT22;62112;45.638;11.714;2022-12-10T16:51:25;19.20;89.00
71672;DHT22;62112;45.638;11.714;2022-12-10T16:53:59;19.20;89.10
71672;DHT22;62112;45.638;11.714;2022-12-10T16:56:30;19.10;89.20
71672;DHT22;62112;45.638;11.714;2022-12-10T16:58:57;19.10;89.10
71672;DHT22;62112;45.638;11.714;2022-12-10T17:01:26;19.20;89.20
71672;DHT22;62112;45.638;11.714;2022-12-10T17:03:58;19.10;89.20
71672;DHT22;62112;45.638;11.714;2022-12-10T17:06:24;19.10;89.10
71672;DHT22;62112;45.638;11.714;2022-12-10T17:08:51;19.20;89.20
71672;DHT22;62112;45.638;11.714;2022-12-10T17:11:22;19.20;89.20
71672;DHT22;62112;45.638;11.714;2022-12-10T17:14:17;19.20;89.20
71672;DHT22;62112;45.638;11.714;2022-12-10T17:16:49;19.10;89.10
71672;DHT22;62112;45.638;11.714;2022-12-10T17:19:19;19.20;89.10
71672;DHT22;62112;45.638;11.714;2022-12-10T17:21:46;19.20;89.10
71672;DHT22;62112;45.638;11.714;2022-12-10T17:24:13;19.20;89.00
71672;DHT22;62112;45.638;11.714;2022-12-10T17:26:43;19.30;89.30
71672;DHT22;62112;45.638;11.714;2022-12-10T17:29:26;19.20;89.10
71672;DHT22;62112;45.638;11.714;2022-12-10T17:31:53;19.20;89.20
71672;DHT22;62112;45.638;11.714;2022-12-10T17:34:19;19.20;89.10